sensor_id;sensor_type;location;lat;lon;timestamp;P1;durP1;ratioP1;P2;durP2;ratioP2
71975;SDS011;60680;52.182;5.398;2022-11-20T00:01:05;21.60;;;7.60;;
71975;SDS011;60680;52.182;5.398;2022-11-20T00:03:35;21.85;;;8.45;;
71975;SDS011;60680;52.182;5.398;2022-11-20T00:06:02;19.02;;;7.50;;
71975;SDS011;60680;52.182;5.398;2022-11-20T00:08:29;19.77;;;8.40;;
71975;SDS011;60680;52.182;5.398;2022-11-20T00:10:55;18.35;;;8.02;;
71975;SDS011;60680;52.182;5.398;2022-11-20T00:13:22;16.30;;;7.40;;
71975;SDS011;60680;52.182;5.398;2022-11-20T00:15:56;18.70;;;7.15;;
71975;SDS011;60680;52.182;5.398;2022-11-20T00:18:23;17.30;;;6.82;;
71975;SDS011;60680;52.182;5.398;2022-11-20T00:20:50;15.68;;;7.18;;
71975;SDS011;60680;52.182;5.398;2022-11-20T00:23:16;17.73;;;7.30;;
71975;SDS011;60680;52.182;5.398;2022-11-20T00:25:43;16.10;;;6.30;;
71975;SDS011;60680;52.182;5.398;2022-11-20T00:28:09;15.25;;;6.28;;
71975;SDS011;60680;52.182;5.398;2022-11-20T00:30:35;15.95;;;7.28;;
71975;SDS011;60680;52.182;5.398;2022-11-20T00:33:02;14.23;;;6.13;;
71975;SDS011;60680;52.182;5.398;2022-11-20T00:35:28;15.10;;;6.88;;
71975;SDS011;60680;52.182;5.398;2022-11-20T00:37:55;13.83;;;6.70;;
71975;SDS011;60680;52.182;5.398;2022-11-20T00:40:22;17.02;;;7.20;;
71975;SDS011;60680;52.182;5.398;2022-11-20T00:42:48;18.40;;;7.20;;
71975;SDS011;60680;52.182;5.398;2022-11-20T00:45:15;17.33;;;7.88;;
71975;SDS011;60680;52.182;5.398;2022-11-20T00:47:41;17.10;;;6.70;;
71975;SDS011;60680;52.182;5.398;2022-11-20T00:50:08;16.55;;;7.20;;
71975;SDS011;60680;52.182;5.398;2022-11-20T00:52:34;14.40;;;6.88;;
71975;SDS011;60680;52.182;5.398;2022-11-20T00:55:01;19.00;;;7.65;;
71975;SDS011;60680;52.182;5.398;2022-11-20T00:57:27;16.98;;;7.10;;
71975;SDS011;60680;52.182;5.398;2022-11-20T00:59:54;16.63;;;6.90;;
71975;SDS011;60680;52.182;5.398;2022-11-20T01:02:20;19.08;;;7.22;;
71975;SDS011;60680;52.182;5.398;2022-11-20T01:04:46;12.02;;;5.72;;
71975;SDS011;60680;52.182;5.398;2022-11-20T01:07:13;15.23;;;6.20;;
71975;SDS011;60680;52.182;5.398;2022-11-20T01:09:39;12.70;;;5.40;;
71975;SDS011;60680;52.182;5.398;2022-11-20T01:12:06;15.93;;;6.43;;
71975;SDS011;60680;52.182;5.398;2022-11-20T01:14:32;14.60;;;6.13;;
71975;SDS011;60680;52.182;5.398;2022-11-20T01:16:59;14.32;;;6.28;;
71975;SDS011;60680;52.182;5.398;2022-11-20T01:19:25;14.90;;;5.90;;
71975;SDS011;60680;52.182;5.398;2022-11-20T01:21:53;13.25;;;5.72;;
71975;SDS011;60680;52.182;5.398;2022-11-20T01:24:21;14.55;;;5.85;;
71975;SDS011;60680;52.182;5.398;2022-11-20T01:26:49;13.20;;;5.25;;
71975;SDS011;60680;52.182;5.398;2022-11-20T01:29:18;13.07;;;5.67;;
71975;SDS011;60680;52.182;5.398;2022-11-20T01:31:47;14.48;;;5.30;;
71975;SDS011;60680;52.182;5.398;2022-11-20T01:34:15;13.35;;;6.25;;
71975;SDS011;60680;52.182;5.398;2022-11-20T01:36:45;14.43;;;5.82;;
71975;SDS011;60680;52.182;5.398;2022-11-20T01:39:19;13.40;;;5.93;;
71975;SDS011;60680;52.182;5.398;2022-11-20T01:41:48;12.05;;;4.57;;
71975;SDS011;60680;52.182;5.398;2022-11-20T01:44:51;12.75;;;5.63;;
71975;SDS011;60680;52.182;5.398;2022-11-20T01:47:30;17.05;;;5.85;;
71975;SDS011;60680;52.182;5.398;2022-11-20T01:50:15;14.90;;;6.30;;
71975;SDS011;60680;52.182;5.398;2022-11-20T01:52:49;11.40;;;5.30;;
71975;SDS011;60680;52.182;5.398;2022-11-20T01:55:22;18.27;;;6.18;;
71975;SDS011;60680;52.182;5.398;2022-11-20T01:57:52;16.70;;;6.93;;
71975;SDS011;60680;52.182;5.398;2022-11-20T02:00:19;13.82;;;5.88;;
71975;SDS011;60680;52.182;5.398;2022-11-20T02:02:59;13.27;;;6.10;;
71975;SDS011;60680;52.182;5.398;2022-11-20T02:05:32;13.00;;;5.80;;
71975;SDS011;60680;52.182;5.398;2022-11-20T02:08:03;12.15;;;5.80;;
71975;SDS011;60680;52.182;5.398;2022-11-20T02:10:32;13.88;;;5.72;;
71975;SDS011;60680;52.182;5.398;2022-11-20T02:12:59;15.57;;;5.50;;
71975;SDS011;60680;52.182;5.398;2022-11-20T02:15:44;11.25;;;5.57;;
71975;SDS011;60680;52.182;5.398;2022-11-20T02:18:13;12.93;;;5.45;;
71975;SDS011;60680;52.182;5.398;2022-11-20T02:20:42;14.45;;;5.72;;
71975;SDS011;60680;52.182;5.398;2022-11-20T02:23:12;11.97;;;5.23;;
71975;SDS011;60680;52.182;5.398;2022-11-20T02:25:41;12.95;;;4.85;;
71975;SDS011;60680;52.182;5.398;2022-11-20T02:28:08;13.18;;;6.25;;
71975;SDS011;60680;52.182;5.398;2022-11-20T02:30:36;14.25;;;5.60;;
71975;SDS011;60680;52.182;5.398;2022-11-20T02:33:02;11.98;;;4.53;;
71975;SDS011;60680;52.182;5.398;2022-11-20T02:37:59;12.90;;;5.78;;
71975;SDS011;60680;52.182;5.398;2022-11-20T02:40:27;13.52;;;5.63;;
71975;SDS011;60680;52.182;5.398;2022-11-20T02:42:55;11.38;;;4.82;;
71975;SDS011;60680;52.182;5.398;2022-11-20T02:45:23;11.10;;;5.10;;
71975;SDS011;60680;52.182;5.398;2022-11-20T02:47:50;13.52;;;5.53;;
71975;SDS011;60680;52.182;5.398;2022-11-20T02:50:17;13.43;;;5.97;;
71975;SDS011;60680;52.182;5.398;2022-11-20T02:52:44;13.38;;;5.20;;
71975;SDS011;60680;52.182;5.398;2022-11-20T02:55:10;14.60;;;5.90;;
71975;SDS011;60680;52.182;5.398;2022-11-20T02:57:37;13.45;;;5.25;;
71975;SDS011;60680;52.182;5.398;2022-11-20T03:00:04;10.35;;;4.82;;
71975;SDS011;60680;52.182;5.398;2022-11-20T03:02:32;10.60;;;5.07;;
71975;SDS011;60680;52.182;5.398;2022-11-20T03:04:59;12.52;;;5.70;;
71975;SDS011;60680;52.182;5.398;2022-11-20T03:07:25;12.45;;;4.88;;
71975;SDS011;60680;52.182;5.398;2022-11-20T03:09:52;12.40;;;5.32;;
71975;SDS011;60680;52.182;5.398;2022-11-20T03:12:18;11.97;;;5.17;;
71975;SDS011;60680;52.182;5.398;2022-11-20T03:14:44;13.70;;;5.55;;
71975;SDS011;60680;52.182;5.398;2022-11-20T03:17:18;11.88;;;5.22;;
71975;SDS011;60680;52.182;5.398;2022-11-20T03:19:44;13.07;;;6.05;;
71975;SDS011;60680;52.182;5.398;2022-11-20T03:22:10;12.83;;;4.30;;
71975;SDS011;60680;52.182;5.398;2022-11-20T03:24:37;9.77;;;4.20;;
71975;SDS011;60680;52.182;5.398;2022-11-20T03:27:03;13.20;;;5.10;;
71975;SDS011;60680;52.182;5.398;2022-11-20T03:29:30;13.07;;;5.72;;
71975;SDS011;60680;52.182;5.398;2022-11-20T03:31:56;12.73;;;5.07;;
71975;SDS011;60680;52.182;5.398;2022-11-20T03:34:23;9.97;;;4.67;;
71975;SDS011;60680;52.182;5.398;2022-11-20T03:36:49;11.65;;;5.30;;
71975;SDS011;60680;52.182;5.398;2022-11-20T03:39:16;16.90;;;5.60;;
71975;SDS011;60680;52.182;5.398;2022-11-20T03:41:42;13.77;;;5.10;;
71975;SDS011;60680;52.182;5.398;2022-11-20T03:44:10;12.07;;;4.75;;
71975;SDS011;60680;52.182;5.398;2022-11-20T03:46:37;11.70;;;5.05;;
71975;SDS011;60680;52.182;5.398;2022-11-20T03:49:04;13.48;;;5.70;;
71975;SDS011;60680;52.182;5.398;2022-11-20T03:51:31;11.70;;;5.00;;
71975;SDS011;60680;52.182;5.398;2022-11-20T03:54:00;11.27;;;4.75;;
71975;SDS011;60680;52.182;5.398;2022-11-20T03:56:30;10.35;;;4.78;;
71975;SDS011;60680;52.182;5.398;2022-11-20T03:58:59;12.57;;;5.38;;
71975;SDS011;60680;52.182;5.398;2022-11-20T04:01:26;11.87;;;4.90;;
71975;SDS011;60680;52.182;5.398;2022-11-20T04:03:55;13.27;;;4.88;;
71975;SDS011;60680;52.182;5.398;2022-11-20T04:06:26;13.82;;;5.07;;
71975;SDS011;60680;52.182;5.398;2022-11-20T04:08:56;10.57;;;4.72;;
71975;SDS011;60680;52.182;5.398;2022-11-20T04:11:24;17.83;;;5.80;;
71975;SDS011;60680;52.182;5.398;2022-11-20T04:13:59;10.23;;;4.65;;
71975;SDS011;60680;52.182;5.398;2022-11-20T04:16:31;12.52;;;5.03;;
71975;SDS011;60680;52.182;5.398;2022-11-20T04:19:00;9.00;;;4.45;;
71975;SDS011;60680;52.182;5.398;2022-11-20T04:21:28;12.77;;;4.80;;
71975;SDS011;60680;52.182;5.398;2022-11-20T04:23:55;9.48;;;4.50;;
71975;SDS011;60680;52.182;5.398;2022-11-20T04:26:23;12.43;;;4.88;;
71975;SDS011;60680;52.182;5.398;2022-11-20T04:28:51;10.75;;;4.70;;
71975;SDS011;60680;52.182;5.398;2022-11-20T04:31:19;14.20;;;5.20;;
71975;SDS011;60680;52.182;5.398;2022-11-20T04:33:48;13.70;;;5.00;;
71975;SDS011;60680;52.182;5.398;2022-11-20T04:36:22;12.20;;;5.38;;
71975;SDS011;60680;52.182;5.398;2022-11-20T04:38:57;11.87;;;4.80;;
71975;SDS011;60680;52.182;5.398;2022-11-20T04:41:25;14.88;;;5.20;;
71975;SDS011;60680;52.182;5.398;2022-11-20T04:43:55;11.45;;;4.97;;
71975;SDS011;60680;52.182;5.398;2022-11-20T04:46:26;10.80;;;5.07;;
71975;SDS011;60680;52.182;5.398;2022-11-20T04:48:53;13.57;;;4.83;;
71975;SDS011;60680;52.182;5.398;2022-11-20T04:51:20;11.63;;;5.72;;
71975;SDS011;60680;52.182;5.398;2022-11-20T04:53:46;12.57;;;4.57;;
71975;SDS011;60680;52.182;5.398;2022-11-20T04:56:13;10.60;;;4.78;;
71975;SDS011;60680;52.182;5.398;2022-11-20T04:58:40;11.38;;;5.15;;
71975;SDS011;60680;52.182;5.398;2022-11-20T05:01:11;11.75;;;5.20;;
71975;SDS011;60680;52.182;5.398;2022-11-20T05:03:40;11.10;;;4.60;;
71975;SDS011;60680;52.182;5.398;2022-11-20T05:06:08;13.60;;;5.20;;
71975;SDS011;60680;52.182;5.398;2022-11-20T05:08:36;16.40;;;5.30;;
71975;SDS011;60680;52.182;5.398;2022-11-20T05:11:04;10.80;;;4.97;;
71975;SDS011;60680;52.182;5.398;2022-11-20T05:13:36;9.82;;;4.93;;
71975;SDS011;60680;52.182;5.398;2022-11-20T05:16:10;11.93;;;5.10;;
71975;SDS011;60680;52.182;5.398;2022-11-20T05:18:39;13.65;;;5.03;;
71975;SDS011;60680;52.182;5.398;2022-11-20T05:21:07;11.38;;;5.05;;
71975;SDS011;60680;52.182;5.398;2022-11-20T05:23:34;13.68;;;4.82;;
71975;SDS011;60680;52.182;5.398;2022-11-20T05:26:01;14.83;;;5.70;;
71975;SDS011;60680;52.182;5.398;2022-11-20T05:28:28;9.93;;;4.43;;
71975;SDS011;60680;52.182;5.398;2022-11-20T05:30:56;13.90;;;4.72;;
71975;SDS011;60680;52.182;5.398;2022-11-20T05:33:29;12.88;;;4.97;;
71975;SDS011;60680;52.182;5.398;2022-11-20T05:35:59;13.40;;;5.20;;
71975;SDS011;60680;52.182;5.398;2022-11-20T05:38:26;11.25;;;4.85;;
71975;SDS011;60680;52.182;5.398;2022-11-20T05:40:52;12.23;;;4.88;;
71975;SDS011;60680;52.182;5.398;2022-11-20T05:43:19;12.05;;;5.47;;
71975;SDS011;60680;52.182;5.398;2022-11-20T05:45:54;11.37;;;4.70;;
71975;SDS011;60680;52.182;5.398;2022-11-20T05:48:20;14.05;;;5.32;;
71975;SDS011;60680;52.182;5.398;2022-11-20T05:50:47;9.18;;;4.97;;
71975;SDS011;60680;52.182;5.398;2022-11-20T05:53:14;13.27;;;5.47;;
71975;SDS011;60680;52.182;5.398;2022-11-20T05:55:41;12.60;;;5.20;;
71975;SDS011;60680;52.182;5.398;2022-11-20T05:58:07;15.27;;;5.38;;
71975;SDS011;60680;52.182;5.398;2022-11-20T06:00:34;13.55;;;5.55;;
71975;SDS011;60680;52.182;5.398;2022-11-20T06:03:01;13.85;;;5.40;;
71975;SDS011;60680;52.182;5.398;2022-11-20T06:05:28;10.63;;;5.27;;
71975;SDS011;60680;52.182;5.398;2022-11-20T06:07:54;14.70;;;5.82;;
71975;SDS011;60680;52.182;5.398;2022-11-20T06:10:21;13.65;;;5.10;;
71975;SDS011;60680;52.182;5.398;2022-11-20T06:12:47;14.65;;;6.03;;
71975;SDS011;60680;52.182;5.398;2022-11-20T06:15:13;13.53;;;5.30;;
71975;SDS011;60680;52.182;5.398;2022-11-20T06:17:40;13.20;;;5.25;;
71975;SDS011;60680;52.182;5.398;2022-11-20T06:20:06;11.55;;;5.32;;
71975;SDS011;60680;52.182;5.398;2022-11-20T06:22:33;16.15;;;5.25;;
71975;SDS011;60680;52.182;5.398;2022-11-20T06:24:59;8.63;;;4.53;;
71975;SDS011;60680;52.182;5.398;2022-11-20T06:27:26;10.20;;;4.55;;
71975;SDS011;60680;52.182;5.398;2022-11-20T06:29:53;11.93;;;5.30;;
71975;SDS011;60680;52.182;5.398;2022-11-20T06:32:19;12.25;;;5.20;;
71975;SDS011;60680;52.182;5.398;2022-11-20T06:34:46;12.43;;;5.33;;
71975;SDS011;60680;52.182;5.398;2022-11-20T06:37:12;10.60;;;4.63;;
71975;SDS011;60680;52.182;5.398;2022-11-20T06:39:38;12.55;;;5.10;;
71975;SDS011;60680;52.182;5.398;2022-11-20T06:42:05;12.07;;;5.32;;
71975;SDS011;60680;52.182;5.398;2022-11-20T06:44:31;15.07;;;6.37;;
71975;SDS011;60680;52.182;5.398;2022-11-20T06:46:59;15.25;;;5.53;;
71975;SDS011;60680;52.182;5.398;2022-11-20T06:49:25;16.42;;;6.35;;
71975;SDS011;60680;52.182;5.398;2022-11-20T06:51:52;12.45;;;5.57;;
71975;SDS011;60680;52.182;5.398;2022-11-20T06:54:18;13.05;;;5.97;;
71975;SDS011;60680;52.182;5.398;2022-11-20T06:56:47;14.68;;;5.72;;
71975;SDS011;60680;52.182;5.398;2022-11-20T06:59:14;12.90;;;5.47;;
71975;SDS011;60680;52.182;5.398;2022-11-20T07:01:41;12.33;;;5.13;;
71975;SDS011;60680;52.182;5.398;2022-11-20T07:04:07;12.73;;;5.85;;
71975;SDS011;60680;52.182;5.398;2022-11-20T07:06:33;13.30;;;5.95;;
71975;SDS011;60680;52.182;5.398;2022-11-20T07:09:00;13.00;;;5.57;;
71975;SDS011;60680;52.182;5.398;2022-11-20T07:11:27;12.27;;;5.07;;
71975;SDS011;60680;52.182;5.398;2022-11-20T07:13:54;11.52;;;4.82;;
71975;SDS011;60680;52.182;5.398;2022-11-20T07:16:20;13.10;;;5.00;;
71975;SDS011;60680;52.182;5.398;2022-11-20T07:18:46;11.83;;;5.63;;
71975;SDS011;60680;52.182;5.398;2022-11-20T07:21:16;14.52;;;5.90;;
71975;SDS011;60680;52.182;5.398;2022-11-20T07:23:42;13.98;;;5.80;;
71975;SDS011;60680;52.182;5.398;2022-11-20T07:26:09;13.67;;;5.00;;
71975;SDS011;60680;52.182;5.398;2022-11-20T07:28:38;12.60;;;4.55;;
71975;SDS011;60680;52.182;5.398;2022-11-20T07:31:05;13.65;;;5.50;;
71975;SDS011;60680;52.182;5.398;2022-11-20T07:33:33;12.85;;;5.65;;
71975;SDS011;60680;52.182;5.398;2022-11-20T07:35:59;12.07;;;5.47;;
71975;SDS011;60680;52.182;5.398;2022-11-20T07:38:26;12.30;;;5.50;;
71975;SDS011;60680;52.182;5.398;2022-11-20T07:40:54;11.80;;;5.03;;
71975;SDS011;60680;52.182;5.398;2022-11-20T07:43:21;12.55;;;4.88;;
71975;SDS011;60680;52.182;5.398;2022-11-20T07:45:48;14.40;;;5.95;;
71975;SDS011;60680;52.182;5.398;2022-11-20T07:48:14;11.52;;;5.55;;
71975;SDS011;60680;52.182;5.398;2022-11-20T07:50:41;11.93;;;5.53;;
71975;SDS011;60680;52.182;5.398;2022-11-20T07:53:07;16.07;;;6.13;;
71975;SDS011;60680;52.182;5.398;2022-11-20T07:55:34;18.23;;;5.43;;
71975;SDS011;60680;52.182;5.398;2022-11-20T07:58:00;17.67;;;6.00;;
71975;SDS011;60680;52.182;5.398;2022-11-20T08:00:27;14.52;;;5.95;;
71975;SDS011;60680;52.182;5.398;2022-11-20T08:02:54;18.63;;;7.10;;
71975;SDS011;60680;52.182;5.398;2022-11-20T08:05:21;14.25;;;5.78;;
71975;SDS011;60680;52.182;5.398;2022-11-20T08:07:48;14.68;;;6.90;;
71975;SDS011;60680;52.182;5.398;2022-11-20T08:10:15;13.13;;;5.32;;
71975;SDS011;60680;52.182;5.398;2022-11-20T08:12:49;15.83;;;6.10;;
71975;SDS011;60680;52.182;5.398;2022-11-20T08:15:37;12.02;;;5.65;;
71975;SDS011;60680;52.182;5.398;2022-11-20T08:18:11;19.52;;;6.65;;
71975;SDS011;60680;52.182;5.398;2022-11-20T08:21:05;15.70;;;6.07;;
71975;SDS011;60680;52.182;5.398;2022-11-20T08:23:37;12.73;;;6.57;;
71975;SDS011;60680;52.182;5.398;2022-11-20T08:26:06;14.18;;;6.20;;
71975;SDS011;60680;52.182;5.398;2022-11-20T08:28:34;16.90;;;6.65;;
71975;SDS011;60680;52.182;5.398;2022-11-20T08:31:01;17.08;;;6.13;;
71975;SDS011;60680;52.182;5.398;2022-11-20T08:33:28;15.73;;;6.50;;
71975;SDS011;60680;52.182;5.398;2022-11-20T08:35:59;16.70;;;6.38;;
71975;SDS011;60680;52.182;5.398;2022-11-20T08:38:27;17.48;;;6.82;;
71975;SDS011;60680;52.182;5.398;2022-11-20T08:41:00;15.73;;;6.63;;
71975;SDS011;60680;52.182;5.398;2022-11-20T08:43:46;14.90;;;5.90;;
71975;SDS011;60680;52.182;5.398;2022-11-20T08:46:13;18.50;;;7.15;;
71975;SDS011;60680;52.182;5.398;2022-11-20T08:48:40;15.57;;;6.85;;
71975;SDS011;60680;52.182;5.398;2022-11-20T08:51:07;16.67;;;6.78;;
71975;SDS011;60680;52.182;5.398;2022-11-20T08:53:33;17.93;;;6.43;;
71975;SDS011;60680;52.182;5.398;2022-11-20T08:56:00;13.00;;;6.05;;
71975;SDS011;60680;52.182;5.398;2022-11-20T08:58:26;16.60;;;7.20;;
71975;SDS011;60680;52.182;5.398;2022-11-20T09:00:53;16.77;;;7.10;;
71975;SDS011;60680;52.182;5.398;2022-11-20T09:03:20;15.23;;;7.17;;
71975;SDS011;60680;52.182;5.398;2022-11-20T09:05:46;19.70;;;7.15;;
71975;SDS011;60680;52.182;5.398;2022-11-20T09:08:12;17.27;;;7.32;;
71975;SDS011;60680;52.182;5.398;2022-11-20T09:10:39;17.98;;;7.45;;
71975;SDS011;60680;52.182;5.398;2022-11-20T09:13:05;13.68;;;6.93;;
71975;SDS011;60680;52.182;5.398;2022-11-20T09:15:32;19.67;;;7.27;;
71975;SDS011;60680;52.182;5.398;2022-11-20T09:18:00;13.43;;;6.85;;
71975;SDS011;60680;52.182;5.398;2022-11-20T09:20:29;16.05;;;7.25;;
71975;SDS011;60680;52.182;5.398;2022-11-20T09:22:56;19.23;;;8.02;;
71975;SDS011;60680;52.182;5.398;2022-11-20T09:25:24;18.73;;;6.57;;
71975;SDS011;60680;52.182;5.398;2022-11-20T09:27:57;14.57;;;6.90;;
71975;SDS011;60680;52.182;5.398;2022-11-20T09:30:25;15.95;;;7.32;;
71975;SDS011;60680;52.182;5.398;2022-11-20T09:32:51;20.73;;;7.82;;
71975;SDS011;60680;52.182;5.398;2022-11-20T09:35:18;17.67;;;7.30;;
71975;SDS011;60680;52.182;5.398;2022-11-20T09:37:45;17.60;;;8.20;;
71975;SDS011;60680;52.182;5.398;2022-11-20T09:45:48;15.95;;;7.28;;
71975;SDS011;60680;52.182;5.398;2022-11-20T09:48:33;16.87;;;7.30;;
71975;SDS011;60680;52.182;5.398;2022-11-20T09:53:46;19.92;;;7.55;;
71975;SDS011;60680;52.182;5.398;2022-11-20T09:56:37;13.60;;;6.70;;
71975;SDS011;60680;52.182;5.398;2022-11-20T09:59:12;18.50;;;7.88;;
71975;SDS011;60680;52.182;5.398;2022-11-20T10:01:48;18.07;;;7.60;;
71975;SDS011;60680;52.182;5.398;2022-11-20T10:04:16;20.10;;;7.57;;
71975;SDS011;60680;52.182;5.398;2022-11-20T10:09:54;18.13;;;7.18;;
71975;SDS011;60680;52.182;5.398;2022-11-20T10:20:43;16.92;;;7.43;;
71975;SDS011;60680;52.182;5.398;2022-11-20T10:23:29;18.73;;;8.07;;
71975;SDS011;60680;52.182;5.398;2022-11-20T10:31:52;19.40;;;7.85;;
71975;SDS011;60680;52.182;5.398;2022-11-20T10:34:24;24.20;;;8.55;;
71975;SDS011;60680;52.182;5.398;2022-11-20T10:36:57;16.23;;;7.75;;
71975;SDS011;60680;52.182;5.398;2022-11-20T10:42:04;19.50;;;8.40;;
71975;SDS011;60680;52.182;5.398;2022-11-20T10:44:37;18.90;;;7.75;;
71975;SDS011;60680;52.182;5.398;2022-11-20T10:47:32;22.55;;;8.48;;
71975;SDS011;60680;52.182;5.398;2022-11-20T10:50:04;19.60;;;7.68;;
71975;SDS011;60680;52.182;5.398;2022-11-20T10:55:07;19.77;;;8.30;;
71975;SDS011;60680;52.182;5.398;2022-11-20T10:57:53;18.42;;;8.30;;
71975;SDS011;60680;52.182;5.398;2022-11-20T11:00:26;17.90;;;8.43;;
71975;SDS011;60680;52.182;5.398;2022-11-20T11:02:53;19.98;;;8.82;;
71975;SDS011;60680;52.182;5.398;2022-11-20T11:08:02;20.07;;;8.50;;
71975;SDS011;60680;52.182;5.398;2022-11-20T11:13:20;22.23;;;9.60;;
71975;SDS011;60680;52.182;5.398;2022-11-20T11:15:46;20.88;;;8.65;;
71975;SDS011;60680;52.182;5.398;2022-11-20T11:18:22;19.77;;;8.80;;
71975;SDS011;60680;52.182;5.398;2022-11-20T11:20:53;21.67;;;8.87;;
71975;SDS011;60680;52.182;5.398;2022-11-20T11:23:37;22.25;;;9.75;;
71975;SDS011;60680;52.182;5.398;2022-11-20T11:26:07;23.45;;;9.23;;
71975;SDS011;60680;52.182;5.398;2022-11-20T11:28:54;26.70;;;10.05;;
71975;SDS011;60680;52.182;5.398;2022-11-20T11:31:22;21.13;;;8.88;;
71975;SDS011;60680;52.182;5.398;2022-11-20T11:33:50;25.50;;;9.60;;
71975;SDS011;60680;52.182;5.398;2022-11-20T11:36:17;23.25;;;9.88;;
71975;SDS011;60680;52.182;5.398;2022-11-20T11:38:50;21.92;;;9.52;;
71975;SDS011;60680;52.182;5.398;2022-11-20T11:41:40;27.25;;;10.35;;
71975;SDS011;60680;52.182;5.398;2022-11-20T11:44:19;24.55;;;10.02;;
71975;SDS011;60680;52.182;5.398;2022-11-20T11:47:09;24.07;;;9.43;;
71975;SDS011;60680;52.182;5.398;2022-11-20T11:49:45;21.60;;;9.32;;
71975;SDS011;60680;52.182;5.398;2022-11-20T11:52:13;25.65;;;10.65;;
71975;SDS011;60680;52.182;5.398;2022-11-20T11:54:43;23.58;;;9.98;;
71975;SDS011;60680;52.182;5.398;2022-11-20T11:57:20;26.88;;;10.32;;
71975;SDS011;60680;52.182;5.398;2022-11-20T12:07:47;27.20;;;10.48;;
71975;SDS011;60680;52.182;5.398;2022-11-20T12:16:19;25.13;;;10.93;;
71975;SDS011;60680;52.182;5.398;2022-11-20T12:18:50;23.58;;;10.32;;
71975;SDS011;60680;52.182;5.398;2022-11-20T12:35:11;28.48;;;11.20;;
71975;SDS011;60680;52.182;5.398;2022-11-20T12:43:32;25.75;;;11.00;;
71975;SDS011;60680;52.182;5.398;2022-11-20T12:54:29;26.50;;;10.80;;
71975;SDS011;60680;52.182;5.398;2022-11-20T12:57:24;27.77;;;10.85;;
71975;SDS011;60680;52.182;5.398;2022-11-20T13:00:07;28.40;;;10.75;;
71975;SDS011;60680;52.182;5.398;2022-11-20T13:08:22;29.47;;;10.53;;
71975;SDS011;60680;52.182;5.398;2022-11-20T13:13:40;27.65;;;11.32;;
71975;SDS011;60680;52.182;5.398;2022-11-20T13:16:15;25.13;;;10.27;;
71975;SDS011;60680;52.182;5.398;2022-11-20T13:18:50;27.17;;;10.57;;
71975;SDS011;60680;52.182;5.398;2022-11-20T13:21:20;25.63;;;10.60;;
71975;SDS011;60680;52.182;5.398;2022-11-20T13:23:48;22.00;;;10.63;;
71975;SDS011;60680;52.182;5.398;2022-11-20T13:26:16;24.88;;;11.48;;
71975;SDS011;60680;52.182;5.398;2022-11-20T13:28:46;25.10;;;11.13;;
71975;SDS011;60680;52.182;5.398;2022-11-20T13:31:33;24.98;;;10.27;;
71975;SDS011;60680;52.182;5.398;2022-11-20T13:34:03;24.73;;;11.03;;
71975;SDS011;60680;52.182;5.398;2022-11-20T13:36:32;25.60;;;10.65;;
71975;SDS011;60680;52.182;5.398;2022-11-20T13:39:01;25.63;;;10.32;;
71975;SDS011;60680;52.182;5.398;2022-11-20T13:41:34;24.58;;;10.50;;
71975;SDS011;60680;52.182;5.398;2022-11-20T13:46:42;26.93;;;11.30;;
71975;SDS011;60680;52.182;5.398;2022-11-20T13:49:33;29.92;;;12.77;;
71975;SDS011;60680;52.182;5.398;2022-11-20T14:00:30;27.23;;;10.70;;
71975;SDS011;60680;52.182;5.398;2022-11-20T14:03:14;29.67;;;11.23;;
71975;SDS011;60680;52.182;5.398;2022-11-20T14:06:10;24.50;;;10.73;;
71975;SDS011;60680;52.182;5.398;2022-11-20T14:08:42;26.50;;;10.70;;
71975;SDS011;60680;52.182;5.398;2022-11-20T14:11:16;28.42;;;11.98;;
71975;SDS011;60680;52.182;5.398;2022-11-20T14:16:32;24.42;;;10.50;;
71975;SDS011;60680;52.182;5.398;2022-11-20T14:19:17;23.95;;;11.20;;
71975;SDS011;60680;52.182;5.398;2022-11-20T14:21:55;28.05;;;11.05;;
71975;SDS011;60680;52.182;5.398;2022-11-20T14:24:37;27.48;;;10.38;;
71975;SDS011;60680;52.182;5.398;2022-11-20T14:27:03;28.53;;;11.47;;
71975;SDS011;60680;52.182;5.398;2022-11-20T14:29:34;24.48;;;9.95;;
71975;SDS011;60680;52.182;5.398;2022-11-20T14:32:02;25.05;;;11.35;;
71975;SDS011;60680;52.182;5.398;2022-11-20T14:34:30;25.27;;;10.30;;
71975;SDS011;60680;52.182;5.398;2022-11-20T14:36:59;27.25;;;10.68;;
71975;SDS011;60680;52.182;5.398;2022-11-20T14:39:37;22.50;;;9.50;;
71975;SDS011;60680;52.182;5.398;2022-11-20T14:42:14;28.70;;;11.40;;
71975;SDS011;60680;52.182;5.398;2022-11-20T14:44:43;27.08;;;10.48;;
71975;SDS011;60680;52.182;5.398;2022-11-20T14:47:11;24.92;;;10.15;;
71975;SDS011;60680;52.182;5.398;2022-11-20T14:49:39;32.30;;;11.98;;
71975;SDS011;60680;52.182;5.398;2022-11-20T14:52:14;24.60;;;10.67;;
71975;SDS011;60680;52.182;5.398;2022-11-20T14:54:43;27.38;;;10.68;;
71975;SDS011;60680;52.182;5.398;2022-11-20T14:57:20;26.25;;;11.68;;
71975;SDS011;60680;52.182;5.398;2022-11-20T14:59:47;28.55;;;11.50;;
71975;SDS011;60680;52.182;5.398;2022-11-20T15:02:13;27.58;;;11.13;;
71975;SDS011;60680;52.182;5.398;2022-11-20T15:04:46;25.03;;;11.20;;
71975;SDS011;60680;52.182;5.398;2022-11-20T15:07:36;23.75;;;10.55;;
71975;SDS011;60680;52.182;5.398;2022-11-20T15:12:34;26.33;;;11.38;;
71975;SDS011;60680;52.182;5.398;2022-11-20T15:15:04;32.03;;;12.85;;
71975;SDS011;60680;52.182;5.398;2022-11-20T15:17:31;28.63;;;11.80;;
71975;SDS011;60680;52.182;5.398;2022-11-20T15:20:02;32.03;;;12.15;;
71975;SDS011;60680;52.182;5.398;2022-11-20T15:22:37;25.88;;;11.65;;
71975;SDS011;60680;52.182;5.398;2022-11-20T15:25:11;26.85;;;11.00;;
71975;SDS011;60680;52.182;5.398;2022-11-20T15:27:39;25.33;;;10.52;;
71975;SDS011;60680;52.182;5.398;2022-11-20T15:30:13;27.30;;;11.50;;
71975;SDS011;60680;52.182;5.398;2022-11-20T15:32:43;25.85;;;10.50;;
71975;SDS011;60680;52.182;5.398;2022-11-20T15:35:10;29.45;;;11.57;;
71975;SDS011;60680;52.182;5.398;2022-11-20T15:37:37;29.25;;;11.27;;
71975;SDS011;60680;52.182;5.398;2022-11-20T15:40:04;29.17;;;11.60;;
71975;SDS011;60680;52.182;5.398;2022-11-20T15:42:32;27.73;;;10.97;;
71975;SDS011;60680;52.182;5.398;2022-11-20T15:44:59;28.35;;;11.07;;
71975;SDS011;60680;52.182;5.398;2022-11-20T15:47:35;29.95;;;11.35;;
71975;SDS011;60680;52.182;5.398;2022-11-20T15:50:02;28.60;;;11.60;;
71975;SDS011;60680;52.182;5.398;2022-11-20T15:52:29;27.83;;;11.77;;
71975;SDS011;60680;52.182;5.398;2022-11-20T15:55:09;28.80;;;11.40;;
71975;SDS011;60680;52.182;5.398;2022-11-20T15:57:36;27.55;;;10.50;;
71975;SDS011;60680;52.182;5.398;2022-11-20T16:00:02;26.60;;;11.18;;
71975;SDS011;60680;52.182;5.398;2022-11-20T16:02:29;26.27;;;10.43;;
71975;SDS011;60680;52.182;5.398;2022-11-20T16:04:56;26.58;;;10.77;;
71975;SDS011;60680;52.182;5.398;2022-11-20T16:07:22;28.33;;;11.23;;
71975;SDS011;60680;52.182;5.398;2022-11-20T16:09:49;29.73;;;11.38;;
71975;SDS011;60680;52.182;5.398;2022-11-20T16:12:15;28.48;;;10.65;;
71975;SDS011;60680;52.182;5.398;2022-11-20T16:15:01;28.67;;;11.57;;
71975;SDS011;60680;52.182;5.398;2022-11-20T16:17:46;28.90;;;11.82;;
71975;SDS011;60680;52.182;5.398;2022-11-20T16:20:13;27.93;;;11.40;;
71975;SDS011;60680;52.182;5.398;2022-11-20T16:22:39;28.25;;;10.95;;
71975;SDS011;60680;52.182;5.398;2022-11-20T16:25:05;26.50;;;11.77;;
71975;SDS011;60680;52.182;5.398;2022-11-20T16:27:32;28.10;;;11.93;;
71975;SDS011;60680;52.182;5.398;2022-11-20T16:29:59;26.90;;;11.90;;
71975;SDS011;60680;52.182;5.398;2022-11-20T16:32:26;25.90;;;12.00;;